This is the latest recevied weather packets stored in our database for station/object KD9ZDW. If no packets are shown the sender has not sent any weather packets the latest 1 day(s).
| Time | Temp. | Humidity | Pressure | Rain* | Wind** | Luminosity | Snow |
|---|---|---|---|---|---|---|---|
| 1778096272 | 12.22° C | 43% | 1015.5 hPa | 0 mm | - | 250 W/m² | - |
| 1778095362 | 12.22° C | 44% | 1015.4 hPa | 0 mm | - | 247 W/m² | - |
| 1778095058 | 12.22° C | 43% | 1015.7 hPa | 0 mm | - | 206 W/m² | - |
| 1778094452 | 12.22° C | 43% | 1015.6 hPa | 0 mm | - | 211 W/m² | - |
| 1778094148 | 12.22° C | 44% | 1015.5 hPa | 0 mm | - | 184 W/m² | - |
| 1778091421 | 12.22° C | 44% | 1015.6 hPa | 0 mm | - | 200 W/m² | - |
| 1778091118 | 12.22° C | 42% | 1015.7 hPa | 0 mm | - | 138 W/m² | - |
| 1778090815 | 12.22° C | 44% | 1015.8 hPa | 0 mm | - | 137 W/m² | - |
| 1778090511 | 12.22° C | 47% | 1015.6 hPa | 0 mm | - | 148 W/m² | - |
| 1778088688 | 12.22° C | 43% | 1015.5 hPa | 0 mm | - | 379 W/m² | - |
| 1778087477 | 12.22° C | 46% | 1015.5 hPa | 0 mm | - | 273 W/m² | - |
| 1778086871 | 12.22° C | 44% | 1015.4 hPa | 0 mm | - | 277 W/m² | - |
| 1778085660 | 12.22° C | 47% | 1015.5 hPa | 0 mm | - | 268 W/m² | - |
| 1778085052 | 11.67° C | 48% | 1015.7 hPa | 0 mm | - | 226 W/m² | - |
| 1778083234 | 12.22° C | 44% | 1015.8 hPa | 0 mm | - | 285 W/m² | - |
| 1778081521 | 11.11° C | 49% | 1015.8 hPa | 0 mm | - | 506 W/m² | - |
| 1778081218 | 11.67° C | 45% | 1015.6 hPa | 0 mm | - | 224 W/m² | - |
| 1778080007 | 11.67° C | 44% | 1015.5 hPa | 0 mm | - | 302 W/m² | - |
| 1778079401 | 10.56° C | 47% | 1015.4 hPa | 0 mm | - | 397 W/m² | - |
| 1778076981 | 10.56° C | 50% | 1015 hPa | 0 mm | - | 172 W/m² | - |
| 1778076679 | 10.56° C | 50% | 1014.8 hPa | 0 mm | - | 127 W/m² | - |
| 1778076376 | 10.56° C | 50% | 1014.8 hPa | 0 mm | - | 111 W/m² | - |
| 1778075770 | 10.56° C | 52% | 1014.8 hPa | 0 mm | - | 93 W/m² | - |
| 1778075466 | 10° C | 52% | 1014.8 hPa | 0 mm | - | 178 W/m² | - |
| 1778074556 | 9.44° C | 55% | 1014.8 hPa | 0 mm | - | 230 W/m² | - |
* Rain latest hour (hover to see other rain measurements)
** Current wind speed in m/s (hover to see current wind gust speed)